Time;durP1;ratioP1;P1;durP2;ratioP2;P2;SDS_P1;SDS_P2;PMS_P1;PMS_P2;Temp;Humidity;BMP_temperature;BMP_pressure;BME280_temperature;BME280_humidity;BME280_pressure;Samples;Min_cycle;Max_cycle;Signal;HPM_P1;HPM_P2
2022/05/09 00:01:04;;;;;;;;;;;;;;;;;;5074927;28;28446;-82
2022/05/09 00:03:29;;;;;;;;;;;;;;;;;;5075478;28;28309;-82
2022/05/09 00:05:54;;;;;;;;;;;;;;;;;;5075072;28;29540;-82
2022/05/09 00:08:19;;;;;;;;;;;;;;;;;;5074960;28;28218;-82
2022/05/09 00:10:44;;;;;;;;;;;;;;;;;;5075169;28;28249;-82
2022/05/09 00:13:10;;;;;;;;;;;;;;;;;;5075222;28;28455;-82
2022/05/09 00:15:35;;;;;;;;;;;;;;;;;;5075418;28;29841;-82
2022/05/09 00:18:00;;;;;;;;;;;;;;;;;;5075000;28;28457;-82
2022/05/09 00:20:25;;;;;;;;;;;;;;;;;;5075280;28;28486;-82
2022/05/09 00:22:50;;;;;;;;;;;;;;;;;;5075201;28;28249;-82
2022/05/09 00:25:15;;;;;;;;;;;;;;;;;;5074750;28;29358;-82
2022/05/09 00:27:40;;;;;;;;;;;;;;;;;;5074997;28;28281;-82
2022/05/09 00:30:05;;;;;;;;;;;;;;;;;;5074823;28;28411;-83
2022/05/09 00:32:30;;;;;;;;;;;;;;;;;;5075116;28;28231;-83
2022/05/09 00:34:56;;;;;;;;;;;;;;;;;;5074600;28;29467;-83
2022/05/09 00:37:21;;;;;;;;;;;;;;;;;;5074991;28;28339;-83
2022/05/09 00:39:46;;;;;;;;;;;;;;;;;;5056961;28;28581;-83
2022/05/09 00:42:12;;;;;;;;;;;;;;;;;;5074672;28;28522;-82
2022/05/09 00:44:38;;;;;;;;;;;;;;;;;;5074706;28;28946;-82
2022/05/09 00:47:03;;;;;;;;;;;;;;;;;;5074803;28;28395;-82
2022/05/09 00:49:28;;;;;;;;;;;;;;;;;;5074618;28;28336;-82
2022/05/09 00:51:55;;;;;;;;;;;;;;;;;;5074863;28;28454;-82
2022/05/09 00:54:20;;;;;;;;;;;;;;;;;;5074635;28;28509;-82
2022/05/09 00:56:45;;;;;;;;;;;;;;;;;;5074613;28;28591;-82
2022/05/09 00:59:10;;;;;;;;;;;;;;;;;;5074194;28;28473;-82
2022/05/09 01:01:36;;;;;;;;;;;;;;;;;;5074610;28;35126;-82
2022/05/09 01:04:01;;;;;;;;;;;;;;;;;;5074549;28;28387;-82
2022/05/09 01:06:26;;;;;;;;;;;;;;;;;;5056390;28;28470;-82
2022/05/09 01:08:52;;;;;;;;;;;;;;;;;;5074618;28;28475;-82
2022/05/09 01:11:17;;;;;;;;;;;;;;;;;;5074456;28;28348;-82
2022/05/09 01:13:42;;;;;;;;;;;;;;;;;;5076062;28;29513;-83
2022/05/09 01:16:08;;;;;;;;;;;;;;;;;;5078011;28;28348;-82
2022/05/09 01:18:34;;;;;;;;;;;;;;;;;;5077966;28;28302;-82
2022/05/09 01:20:59;;;;;;;;;;;;;;;;;;5078099;28;28521;-83
2022/05/09 01:23:24;;;;;;;;;;;;;;;;;;5059199;28;28422;-82
2022/05/09 01:25:52;;;;;;;;;;;;;;;;;;5077819;28;28549;-82
2022/05/09 01:28:17;;;;;;;;;;;;;;;;;;5077515;28;28481;-81
2022/05/09 01:30:43;;;;;;;;;;;;;;;;;;5077789;28;28353;-82
2022/05/09 01:33:08;;;;;;;;;;;;;;;;;;5059139;28;29879;-82
2022/05/09 01:35:33;;;;;;;;;;;;;;;;;;5077472;28;28593;-82
2022/05/09 01:37:59;;;;;;;;;;;;;;;;;;5077497;28;28462;-82
2022/05/09 01:40:24;;;;;;;;;;;;;;;;;;5077625;28;28403;-82
2022/05/09 01:42:49;;;;;;;;;;;;;;;;;;5077328;28;29438;-82
2022/05/09 01:45:14;;;;;;;;;;;;;;;;;;5077150;28;28398;-81
2022/05/09 01:50:23;;;;;;;;;;;;;;;;;;5077469;28;28355;-81
2022/05/09 01:52:48;;;;;;;;;;;;;;;;;;5077185;28;28598;-82
2022/05/09 01:55:14;;;;;;;;;;;;;;;;;;5058978;28;28497;-81
2022/05/09 01:57:39;;;;;;;;;;;;;;;;;;5077145;28;27839;-82
2022/05/09 02:00:04;;;;;;;;;;;;;;;;;;5077070;28;27846;-82
2022/05/09 02:02:30;;;;;;;;;;;;;;;;;;5058923;28;28572;-82
2022/05/09 02:04:55;;;;;;;;;;;;;;;;;;5077022;28;28337;-82
2022/05/09 02:07:23;;;;;;;;;;;;;;;;;;5076954;28;28405;-82
2022/05/09 02:09:48;;;;;;;;;;;;;;;;;;5077061;28;28430;-82
2022/05/09 02:12:13;;;;;;;;;;;;;;;;;;5077010;28;28403;-82
2022/05/09 02:14:38;;;;;;;;;;;;;;;;;;5076920;28;28363;-82
2022/05/09 02:17:03;;;;;;;;;;;;;;;;;;5077298;28;28536;-82
2022/05/09 02:19:28;;;;;;;;;;;;;;;;;;5076925;28;28409;-83
2022/05/09 02:21:53;;;;;;;;;;;;;;;;;;5058368;28;28325;-82
2022/05/09 02:24:19;;;;;;;;;;;;;;;;;;5076728;28;28253;-82
2022/05/09 02:26:44;;;;;;;;;;;;;;;;;;5076759;28;28330;-82
2022/05/09 02:29:09;;;;;;;;;;;;;;;;;;5076861;28;28245;-82
2022/05/09 02:31:34;;;;;;;;;;;;;;;;;;5076561;28;28471;-82
2022/05/09 02:34:01;;;;;;;;;;;;;;;;;;5076550;28;28486;-82
2022/05/09 02:36:26;;;;;;;;;;;;;;;;;;5076717;28;28263;-82
2022/05/09 02:38:51;;;;;;;;;;;;;;;;;;5076877;28;28356;-82
2022/05/09 02:41:16;;;;;;;;;;;;;;;;;;5076726;28;29198;-82
2022/05/09 02:43:41;;;;;;;;;;;;;;;;;;5076161;28;27866;-82
2022/05/09 02:46:06;;;;;;;;;;;;;;;;;;5076380;28;28327;-82
2022/05/09 02:48:32;;;;;;;;;;;;;;;;;;5076770;28;28249;-82
2022/05/09 02:50:57;;;;;;;;;;;;;;;;;;5076310;28;29137;-82
2022/05/09 02:53:22;;;;;;;;;;;;;;;;;;5076347;28;28441;-82
2022/05/09 02:55:47;;;;;;;;;;;;;;;;;;5076293;28;28336;-82
2022/05/09 02:58:12;;;;;;;;;;;;;;;;;;5076065;28;28340;-82
2022/05/09 03:00:37;;;;;;;;;;;;;;;;;;5076112;28;28507;-81
2022/05/09 03:05:46;;;;;;;;;;;;;;;;;;5076096;28;28470;-81
2022/05/09 03:08:11;;;;;;;;;;;;;;;;;;5076357;28;28269;-81
2022/05/09 03:10:36;;;;;;;;;;;;;;;;;;5075943;28;28233;-81
2022/05/09 03:13:01;;;;;;;;;;;;;;;;;;5076174;28;28337;-82
2022/05/09 03:15:27;;;;;;;;;;;;;;;;;;5075945;28;29135;-82
2022/05/09 03:17:52;;;;;;;;;;;;;;;;;;5057905;28;28403;-82
2022/05/09 03:20:17;;;;;;;;;;;;;;;;;;5075821;28;28262;-81
2022/05/09 03:22:42;;;;;;;;;;;;;;;;;;5075692;28;28476;-81
2022/05/09 03:25:07;;;;;;;;;;;;;;;;;;5075828;28;28482;-81
2022/05/09 03:27:32;;;;;;;;;;;;;;;;;;5075762;28;28415;-81
2022/05/09 03:29:57;;;;;;;;;;;;;;;;;;5075753;28;28656;-81
2022/05/09 03:32:22;;;;;;;;;;;;;;;;;;5075607;28;28378;-81
2022/05/09 03:34:47;;;;;;;;;;;;;;;;;;5075293;28;28486;-81
2022/05/09 03:37:13;;;;;;;;;;;;;;;;;;5075230;28;28446;-81
2022/05/09 03:39:38;;;;;;;;;;;;;;;;;;5075360;28;28425;-82
2022/05/09 03:42:03;;;;;;;;;;;;;;;;;;5075798;28;28382;-81
2022/05/09 03:44:28;;;;;;;;;;;;;;;;;;5075541;28;28406;-81
2022/05/09 03:46:53;;;;;;;;;;;;;;;;;;5075552;28;28375;-81
2022/05/09 03:49:19;;;;;;;;;;;;;;;;;;5075581;28;28606;-81
2022/05/09 03:51:44;;;;;;;;;;;;;;;;;;5075233;28;28333;-81
2022/05/09 03:54:09;;;;;;;;;;;;;;;;;;5075579;28;27785;-81
2022/05/09 03:56:34;;;;;;;;;;;;;;;;;;5075375;28;27843;-82
2022/05/09 03:58:59;;;;;;;;;;;;;;;;;;5074882;28;28477;-81
2022/05/09 04:01:25;;;;;;;;;;;;;;;;;;5075396;28;28528;-81
2022/05/09 04:03:50;;;;;;;;;;;;;;;;;;5075288;28;28361;-81
2022/05/09 04:06:15;;;;;;;;;;;;;;;;;;5075514;28;27818;-81
2022/05/09 04:08:40;;;;;;;;;;;;;;;;;;5074866;28;29049;-81
2022/05/09 04:11:05;;;;;;;;;;;;;;;;;;5075156;28;28387;-81
2022/05/09 04:13:30;;;;;;;;;;;;;;;;;;5075243;28;28326;-81
2022/05/09 04:18:39;;;;;;;;;;;;;;;;;;5075128;28;28315;-81
2022/05/09 04:21:04;;;;;;;;;;;;;;;;;;5075085;28;28455;-81
2022/05/09 04:23:29;;;;;;;;;;;;;;;;;;5074908;28;28600;-81
2022/05/09 04:25:54;;;;;;;;;;;;;;;;;;5075255;28;28351;-81
2022/05/09 04:28:19;;;;;;;;;;;;;;;;;;5074759;28;28612;-81
2022/05/09 04:30:44;;;;;;;;;;;;;;;;;;5074879;28;28382;-81
2022/05/09 04:33:10;;;;;;;;;;;;;;;;;;5075013;28;28573;-81
2022/05/09 04:35:35;;;;;;;;;;;;;;;;;;5074885;28;28482;-81
2022/05/09 04:38:02;;;;;;;;;;;;;;;;;;5056600;28;30192;-81
2022/05/09 04:40:28;;;;;;;;;;;;;;;;;;5074772;28;28383;-81
2022/05/09 04:42:53;;;;;;;;;;;;;;;;;;5074573;28;28252;-81
2022/05/09 04:45:19;;;;;;;;;;;;;;;;;;5075016;28;28509;-81
2022/05/09 04:47:45;;;;;;;;;;;;;;;;;;5074969;28;28441;-81
2022/05/09 04:50:10;;;;;;;;;;;;;;;;;;5078479;28;28340;-81
2022/05/09 04:52:35;;;;;;;;;;;;;;;;;;5078331;28;28478;-81
2022/05/09 04:55:00;;;;;;;;;;;;;;;;;;5078242;28;28300;-81
2022/05/09 04:57:25;;;;;;;;;;;;;;;;;;5077978;28;28576;-81
2022/05/09 04:59:50;;;;;;;;;;;;;;;;;;5059273;28;28568;-81
2022/05/09 05:02:15;;;;;;;;;;;;;;;;;;5078147;28;28324;-81
2022/05/09 05:04:42;;;;;;;;;;;;;;;;;;5078251;28;28265;-82
2022/05/09 05:07:07;;;;;;;;;;;;;;;;;;5078073;28;29227;-82
2022/05/09 05:09:32;;;;;;;;;;;;;;;;;;5078111;28;28549;-81
2022/05/09 05:11:57;;;;;;;;;;;;;;;;;;5078012;28;28445;-81
2022/05/09 05:14:22;;;;;;;;;;;;;;;;;;5077905;28;28550;-81
2022/05/09 05:17:00;;;;;;;;;;;;;;;;;;5059668;28;29062;-82
2022/05/09 05:19:25;;;;;;;;;;;;;;;;;;5077932;28;28354;-81
2022/05/09 05:21:50;;;;;;;;;;;;;;;;;;5078004;28;28256;-81
2022/05/09 05:24:15;;;;;;;;;;;;;;;;;;5076558;28;28316;-81
2022/05/09 05:26:40;;;;;;;;;;;;;;;;;;5077459;28;28524;-81
2022/05/09 05:29:06;;;;;;;;;;;;;;;;;;5059439;28;28522;-81
2022/05/09 05:31:31;;;;;;;;;;;;;;;;;;5077596;28;28381;-81
2022/05/09 05:33:56;;;;;;;;;;;;;;;;;;5077741;28;27878;-81
2022/05/09 05:36:21;;;;;;;;;;;;;;;;;;5077422;28;28411;-81
2022/05/09 05:38:51;;;;;;;;;;;;;;;;;;5075641;28;28530;-81
2022/05/09 05:41:16;;;;;;;;;;;;;;;;;;5077701;28;28489;-81
2022/05/09 05:43:41;;;;;;;;;;;;;;;;;;5077563;28;28473;-81
2022/05/09 05:46:06;;;;;;;;;;;;;;;;;;5077480;28;29395;-81
2022/05/09 05:48:32;;;;;;;;;;;;;;;;;;5077370;28;28244;-81
2022/05/09 05:50:57;;;;;;;;;;;;;;;;;;5077670;28;28396;-81
2022/05/09 05:53:22;;;;;;;;;;;;;;;;;;5077351;28;28501;-81
2022/05/09 05:55:47;;;;;;;;;;;;;;;;;;5077314;28;29755;-81
2022/05/09 05:58:12;;;;;;;;;;;;;;;;;;5081196;28;28362;-81
2022/05/09 06:00:38;;;;;;;;;;;;;;;;;;5096613;28;28483;-81
2022/05/09 06:03:03;;;;;;;;;;;;;;;;;;5097577;28;28453;-81
2022/05/09 06:05:29;;;;;;;;;;;;;;;;;;5078709;28;29713;-81
2022/05/09 06:07:55;;;;;;;;;;;;;;;;;;5097408;27;28401;-81
2022/05/09 06:10:20;;;;;;;;;;;;;;;;;;5097338;28;28792;-81
2022/05/09 06:12:45;;;;;;;;;;;;;;;;;;5097594;27;28477;-81
2022/05/09 06:15:25;;;;;;;;;;;;;;;;;;5097198;28;28748;-81
2022/05/09 06:17:50;;;;;;;;;;;;;;;;;;5097606;28;28327;-80
2022/05/09 06:20:15;;;;;;;;;;;;;;;;;;5097121;28;28282;-84
2022/05/09 06:22:40;;;;;;;;;;;;;;;;;;5097487;28;28359;-80
2022/05/09 06:25:06;;;;;;;;;;;;;;;;;;5096731;28;28326;-80
2022/05/09 06:27:32;;;;;;;;;;;;;;;;;;5096980;28;28470;-80
2022/05/09 06:29:57;;;;;;;;;;;;;;;;;;5096841;28;28376;-80
2022/05/09 06:32:25;;;;;;;;;;;;;;;;;;5097171;27;28473;-80
2022/05/09 06:34:51;;;;;;;;;;;;;;;;;;5079404;28;28519;-79
2022/05/09 06:37:16;;;;;;;;;;;;;;;;;;5076508;28;28628;-80
2022/05/09 06:39:41;;;;;;;;;;;;;;;;;;5076216;28;28411;-78
2022/05/09 06:42:07;;;;;;;;;;;;;;;;;;5076473;28;28432;-78
2022/05/09 06:44:33;;;;;;;;;;;;;;;;;;5075217;28;28511;-79
2022/05/09 06:46:58;;;;;;;;;;;;;;;;;;5075997;28;28415;-78
2022/05/09 06:49:23;;;;;;;;;;;;;;;;;;5076009;28;28324;-79
2022/05/09 06:51:48;;;;;;;;;;;;;;;;;;5075899;28;28305;-79
2022/05/09 06:54:14;;;;;;;;;;;;;;;;;;5075983;28;28394;-79
2022/05/09 06:56:39;;;;;;;;;;;;;;;;;;5075855;28;28503;-81
2022/05/09 06:59:04;;;;;;;;;;;;;;;;;;5075875;28;28445;-80
2022/05/09 07:01:29;;;;;;;;;;;;;;;;;;5075554;28;28336;-80
2022/05/09 07:03:55;;;;;;;;;;;;;;;;;;5075836;28;29411;-81
2022/05/09 07:06:21;;;;;;;;;;;;;;;;;;5075665;28;28194;-80
2022/05/09 07:08:46;;;;;;;;;;;;;;;;;;5076009;28;28293;-80
2022/05/09 07:11:12;;;;;;;;;;;;;;;;;;5069316;28;28509;-80
2022/05/09 07:13:38;;;;;;;;;;;;;;;;;;5060341;28;28614;-79
2022/05/09 07:16:04;;;;;;;;;;;;;;;;;;5055696;28;28299;-79
2022/05/09 07:18:29;;;;;;;;;;;;;;;;;;5055865;28;28427;-79
2022/05/09 07:20:54;;;;;;;;;;;;;;;;;;5055569;28;28451;-79
2022/05/09 07:23:19;;;;;;;;;;;;;;;;;;5055618;28;28431;-79
2022/05/09 07:25:44;;;;;;;;;;;;;;;;;;5065362;28;28483;-78
2022/05/09 07:28:11;;;;;;;;;;;;;;;;;;5075535;28;28415;-78
2022/05/09 07:30:37;;;;;;;;;;;;;;;;;;5075822;28;28419;-78
2022/05/09 07:33:02;;;;;;;;;;;;;;;;;;5075295;28;28486;-79
2022/05/09 07:35:27;;;;;;;;;;;;;;;;;;5075658;28;28045;-78
2022/05/09 07:37:52;;;;;;;;;;;;;;;;;;5075557;28;27736;-79
2022/05/09 07:40:17;;;;;;;;;;;;;;;;;;5075574;28;28397;-77
2022/05/09 07:42:43;;;;;;;;;;;;;;;;;;5075539;28;28532;-78
2022/05/09 07:45:08;;;;;;;;;;;;;;;;;;5075138;28;28347;-78
2022/05/09 07:47:33;;;;;;;;;;;;;;;;;;5075643;28;28295;-81
2022/05/09 07:49:58;;;;;;;;;;;;;;;;;;5075582;28;27821;-79
2022/05/09 07:52:23;;;;;;;;;;;;;;;;;;5075411;28;28358;-78
2022/05/09 07:54:48;;;;;;;;;;;;;;;;;;5075150;28;28386;-79
2022/05/09 07:57:13;;;;;;;;;;;;;;;;;;5075168;28;28244;-81
2022/05/09 07:59:38;;;;;;;;;;;;;;;;;;5091454;28;28347;-78
2022/05/09 08:02:03;;;;;;;;;;;;;;;;;;5095128;28;29259;-78
2022/05/09 08:04:29;;;;;;;;;;;;;;;;;;5095538;28;28424;-79
2022/05/09 08:06:55;;;;;;;;;;;;;;;;;;5095360;28;28264;-78
2022/05/09 08:09:21;;;;;;;;;;;;;;;;;;5094992;27;28533;-87
2022/05/09 08:11:46;;;;;;;;;;;;;;;;;;5075977;28;33836;-86
2022/05/09 08:14:11;;;;;;;;;;;;;;;;;;5054833;28;28301;-85
2022/05/09 08:16:36;;;;;;;;;;;;;;;;;;5055097;28;28304;-84
2022/05/09 08:19:02;;;;;;;;;;;;;;;;;;5054600;28;28367;-86
2022/05/09 08:21:27;;;;;;;;;;;;;;;;;;5087205;28;29939;-86
2022/05/09 08:23:52;;;;;;;;;;;;;;;;;;5058279;28;28476;-85
2022/05/09 08:26:21;;;;;;;;;;;;;;;;;;5058506;28;28485;-87
2022/05/09 08:28:46;;;;;;;;;;;;;;;;;;5058865;28;28399;-82
2022/05/09 08:31:16;;;;;;;;;;;;;;;;;;5057841;28;28453;-82
2022/05/09 08:33:41;;;;;;;;;;;;;;;;;;5076860;28;28308;-84
2022/05/09 08:36:09;;;;;;;;;;;;;;;;;;5098956;27;28385;-84
2022/05/09 08:38:34;;;;;;;;;;;;;;;;;;5088852;27;28505;-82
2022/05/09 08:40:59;;;;;;;;;;;;;;;;;;5077839;28;29568;-84
2022/05/09 08:43:25;;;;;;;;;;;;;;;;;;5077030;28;28866;-83
2022/05/09 08:45:50;;;;;;;;;;;;;;;;;;5078250;28;28418;-83
2022/05/09 08:48:15;;;;;;;;;;;;;;;;;;5078373;28;28447;-81
2022/05/09 08:50:40;;;;;;;;;;;;;;;;;;5077726;28;28384;-81
2022/05/09 08:53:05;;;;;;;;;;;;;;;;;;5078241;28;28395;-81
2022/05/09 08:55:33;;;;;;;;;;;;;;;;;;5078489;28;28454;-80
2022/05/09 08:57:58;;;;;;;;;;;;;;;;;;5098593;27;28316;-81
2022/05/09 09:00:29;;;;;;;;;;;;;;;;;;5098345;27;28700;-83
2022/05/09 09:02:54;;;;;;;;;;;;;;;;;;5098370;28;28388;-82
2022/05/09 09:05:19;;;;;;;;;;;;;;;;;;5098165;28;28530;-82
2022/05/09 09:07:44;;;;;;;;;;;;;;;;;;5098686;28;28366;-82
2022/05/09 09:10:09;;;;;;;;;;;;;;;;;;5098156;28;28695;-84
2022/05/09 09:12:34;;;;;;;;;;;;;;;;;;5098389;28;27986;-82
2022/05/09 09:14:59;;;;;;;;;;;;;;;;;;5098306;28;28358;-82
2022/05/09 09:17:25;;;;;;;;;;;;;;;;;;5098280;28;28501;-82
2022/05/09 09:19:50;;;;;;;;;;;;;;;;;;5098308;27;29515;-82
2022/05/09 09:22:15;;;;;;;;;;;;;;;;;;5098001;27;28347;-82
2022/05/09 09:24:40;;;;;;;;;;;;;;;;;;5098211;28;28320;-82
2022/05/09 09:27:06;;;;;;;;;;;;;;;;;;5098223;28;28351;-82
2022/05/09 09:29:31;;;;;;;;;;;;;;;;;;5098028;28;29065;-84
2022/05/09 09:31:56;;;;;;;;;;;;;;;;;;5097811;28;28924;-84
2022/05/09 09:34:21;;;;;;;;;;;;;;;;;;5081098;27;28502;-83
2022/05/09 09:36:46;;;;;;;;;;;;;;;;;;5077119;28;28422;-82
2022/05/09 09:39:11;;;;;;;;;;;;;;;;;;5077022;28;28575;-81
2022/05/09 09:41:36;;;;;;;;;;;;;;;;;;5077343;28;28387;-80
2022/05/09 09:44:01;;;;;;;;;;;;;;;;;;5077099;28;28460;-80
2022/05/09 09:46:27;;;;;;;;;;;;;;;;;;5077061;28;28394;-80
2022/05/09 09:48:52;;;;;;;;;;;;;;;;;;5076573;28;29269;-80
2022/05/09 09:51:18;;;;;;;;;;;;;;;;;;5074200;28;28523;-81
2022/05/09 09:53:43;;;;;;;;;;;;;;;;;;5057254;28;28460;-81
2022/05/09 09:56:08;;;;;;;;;;;;;;;;;;5061127;28;28455;-81
2022/05/09 09:58:33;;;;;;;;;;;;;;;;;;5056420;28;28786;-81
2022/05/09 10:00:58;;;;;;;;;;;;;;;;;;5072318;28;28244;-81
2022/05/09 10:03:23;;;;;;;;;;;;;;;;;;5058228;28;28383;-81
2022/05/09 10:05:48;;;;;;;;;;;;;;;;;;5077456;28;28717;-83
2022/05/09 10:08:14;;;;;;;;;;;;;;;;;;5081025;28;28584;-86
2022/05/09 10:10:39;;;;;;;;;;;;;;;;;;5056458;28;28809;-83
2022/05/09 10:13:05;;;;;;;;;;;;;;;;;;5090086;28;28474;-84
2022/05/09 10:15:31;;;;;;;;;;;;;;;;;;5077030;28;28528;-82
2022/05/09 10:17:56;;;;;;;;;;;;;;;;;;5068542;28;28413;-85
2022/05/09 10:20:21;;;;;;;;;;;;;;;;;;5075888;28;28047;-85
2022/05/09 10:25:33;;;;;;;;;;;;;;;;;;5078606;28;28349;-82
2022/05/09 10:27:58;;;;;;;;;;;;;;;;;;5060182;28;29550;-85
2022/05/09 10:30:29;;;;;;;;;;;;;;;;;;5075479;28;28502;-83
2022/05/09 10:32:54;;;;;;;;;;;;;;;;;;5075905;28;28261;-82
2022/05/09 10:35:19;;;;;;;;;;;;;;;;;;5076425;28;28367;-85
2022/05/09 10:37:44;;;;;;;;;;;;;;;;;;5077339;28;28510;-82
2022/05/09 10:40:10;;;;;;;;;;;;;;;;;;5076634;28;28435;-82
2022/05/09 10:42:35;;;;;;;;;;;;;;;;;;5076056;28;28545;-81
2022/05/09 10:45:02;;;;;;;;;;;;;;;;;;5075205;28;27948;-82
2022/05/09 10:47:27;;;;;;;;;;;;;;;;;;5074722;28;28466;-85
2022/05/09 10:49:52;;;;;;;;;;;;;;;;;;5075245;28;28543;-87
2022/05/09 10:52:17;;;;;;;;;;;;;;;;;;5076350;28;28617;-85
2022/05/09 10:54:42;;;;;;;;;;;;;;;;;;5075893;28;28373;-85
2022/05/09 10:57:07;;;;;;;;;;;;;;;;;;5075909;28;28582;-86
2022/05/09 10:59:32;;;;;;;;;;;;;;;;;;5075152;28;28557;-85
2022/05/09 11:02:00;;;;;;;;;;;;;;;;;;5075425;28;27846;-87
2022/05/09 11:04:25;;;;;;;;;;;;;;;;;;5075533;28;28401;-85
2022/05/09 11:06:50;;;;;;;;;;;;;;;;;;5075500;28;28414;-87
2022/05/09 11:09:15;;;;;;;;;;;;;;;;;;5075860;28;28326;-85
2022/05/09 11:11:40;;;;;;;;;;;;;;;;;;5075881;28;28479;-85
2022/05/09 11:14:06;;;;;;;;;;;;;;;;;;5076411;28;28413;-85
2022/05/09 11:16:34;;;;;;;;;;;;;;;;;;5074753;28;28573;-86
2022/05/09 11:18:59;;;;;;;;;;;;;;;;;;5074823;28;28452;-84
2022/05/09 11:21:24;;;;;;;;;;;;;;;;;;5074983;28;28594;-85
2022/05/09 11:23:49;;;;;;;;;;;;;;;;;;5075644;28;28338;-85
2022/05/09 11:26:14;;;;;;;;;;;;;;;;;;5075594;28;29285;-85
2022/05/09 11:28:39;;;;;;;;;;;;;;;;;;5074424;28;28673;-86
2022/05/09 11:31:05;;;;;;;;;;;;;;;;;;5074373;28;28623;-86
2022/05/09 11:33:32;;;;;;;;;;;;;;;;;;5074654;28;28452;-86
2022/05/09 11:35:57;;;;;;;;;;;;;;;;;;5074540;28;28461;-88
2022/05/09 11:38:25;;;;;;;;;;;;;;;;;;5074820;28;28325;-87
2022/05/09 11:40:51;;;;;;;;;;;;;;;;;;5074917;28;28486;-85
2022/05/09 11:43:28;;;;;;;;;;;;;;;;;;5074986;28;28676;-85
2022/05/09 11:45:54;;;;;;;;;;;;;;;;;;5071205;28;29706;-92
2022/05/09 11:48:19;;;;;;;;;;;;;;;;;;5074263;28;28784;-87
2022/05/09 11:50:44;;;;;;;;;;;;;;;;;;5074888;28;28482;-85
2022/05/09 11:53:09;;;;;;;;;;;;;;;;;;5074872;28;28511;-85
2022/05/09 11:55:34;;;;;;;;;;;;;;;;;;5056687;28;28465;-84
2022/05/09 11:58:00;;;;;;;;;;;;;;;;;;5074183;28;28543;-85
2022/05/09 12:00:25;;;;;;;;;;;;;;;;;;5074828;28;28465;-85
2022/05/09 12:02:50;;;;;;;;;;;;;;;;;;5075004;28;28547;-86
2022/05/09 12:05:15;;;;;;;;;;;;;;;;;;5074805;28;28559;-86
2022/05/09 12:07:40;;;;;;;;;;;;;;;;;;5075169;28;28509;-85
2022/05/09 12:10:05;;;;;;;;;;;;;;;;;;5074010;28;28761;-90
2022/05/09 12:12:30;;;;;;;;;;;;;;;;;;5075464;28;27868;-90
2022/05/09 12:14:56;;;;;;;;;;;;;;;;;;5074315;28;28479;-86
2022/05/09 12:17:21;;;;;;;;;;;;;;;;;;5076645;28;28226;-88
2022/05/09 12:19:46;;;;;;;;;;;;;;;;;;5077071;28;28225;-85
2022/05/09 12:22:11;;;;;;;;;;;;;;;;;;5076473;28;28505;-82
2022/05/09 12:24:41;;;;;;;;;;;;;;;;;;5075495;28;29666;-81
2022/05/09 12:27:07;;;;;;;;;;;;;;;;;;5075021;28;28318;-83
2022/05/09 12:29:32;;;;;;;;;;;;;;;;;;5075728;28;28476;-84
2022/05/09 12:31:57;;;;;;;;;;;;;;;;;;5075840;28;28384;-84
2022/05/09 12:34:22;;;;;;;;;;;;;;;;;;5075357;28;28534;-86
2022/05/09 12:36:48;;;;;;;;;;;;;;;;;;5075723;28;28508;-84
2022/05/09 12:39:13;;;;;;;;;;;;;;;;;;5075288;28;28407;-87
2022/05/09 12:41:38;;;;;;;;;;;;;;;;;;5076714;28;28715;-87
2022/05/09 12:44:03;;;;;;;;;;;;;;;;;;5077108;28;28591;-90
2022/05/09 12:46:28;;;;;;;;;;;;;;;;;;5077368;28;28253;-90
2022/05/09 12:48:53;;;;;;;;;;;;;;;;;;5059395;28;28405;-91
2022/05/09 12:51:18;;;;;;;;;;;;;;;;;;5077712;28;28538;-94
2022/05/09 12:53:43;;;;;;;;;;;;;;;;;;5060415;28;29832;-92
2022/05/09 12:56:08;;;;;;;;;;;;;;;;;;5076433;28;28250;-90
2022/05/09 12:58:34;;;;;;;;;;;;;;;;;;5061175;28;28289;-89
2022/05/09 13:01:07;;;;;;;;;;;;;;;;;;5070402;28;28478;-93
2022/05/09 13:03:32;;;;;;;;;;;;;;;;;;5057773;28;29809;-90
2022/05/09 13:05:57;;;;;;;;;;;;;;;;;;5059506;28;28798;-87
2022/05/09 13:08:25;;;;;;;;;;;;;;;;;;5054855;28;29865;-88
2022/05/09 13:10:50;;;;;;;;;;;;;;;;;;5075520;28;28555;-88
2022/05/09 13:13:15;;;;;;;;;;;;;;;;;;5074323;28;29548;-87
2022/05/09 13:15:40;;;;;;;;;;;;;;;;;;5072541;28;28307;-89
2022/05/09 13:18:05;;;;;;;;;;;;;;;;;;5058246;28;28482;-90
2022/05/09 13:20:30;;;;;;;;;;;;;;;;;;5075272;28;28475;-89
2022/05/09 13:22:55;;;;;;;;;;;;;;;;;;5065052;28;28604;-90
2022/05/09 13:25:21;;;;;;;;;;;;;;;;;;5051678;28;28549;-91
2022/05/09 13:27:46;;;;;;;;;;;;;;;;;;5075740;28;28581;-89
2022/05/09 13:30:11;;;;;;;;;;;;;;;;;;5077686;28;28565;-88
2022/05/09 13:32:36;;;;;;;;;;;;;;;;;;5077173;28;28700;-89
2022/05/09 13:35:01;;;;;;;;;;;;;;;;;;5077744;28;28384;-90
2022/05/09 13:37:26;;;;;;;;;;;;;;;;;;5077778;28;28331;-90
2022/05/09 13:39:51;;;;;;;;;;;;;;;;;;5077798;28;28297;-90
2022/05/09 13:42:17;;;;;;;;;;;;;;;;;;5059557;28;29692;-94
2022/05/09 13:44:42;;;;;;;;;;;;;;;;;;5058733;28;28640;-94
2022/05/09 13:47:07;;;;;;;;;;;;;;;;;;5078635;28;28248;-92
2022/05/09 13:49:32;;;;;;;;;;;;;;;;;;5071930;28;28535;-92
2022/05/09 13:51:57;;;;;;;;;;;;;;;;;;5076966;28;28524;-94
2022/05/09 13:54:22;;;;;;;;;;;;;;;;;;5077884;28;28406;-91
2022/05/09 13:56:47;;;;;;;;;;;;;;;;;;5076846;28;28392;-86
2022/05/09 13:59:13;;;;;;;;;;;;;;;;;;5075529;28;28570;-91
2022/05/09 14:01:38;;;;;;;;;;;;;;;;;;5075586;28;28458;-91
2022/05/09 14:04:03;;;;;;;;;;;;;;;;;;5075793;28;28567;-89
2022/05/09 14:06:28;;;;;;;;;;;;;;;;;;5076076;28;28469;-88
2022/05/09 14:08:53;;;;;;;;;;;;;;;;;;5077304;28;28364;-89
2022/05/09 14:11:18;;;;;;;;;;;;;;;;;;5058498;28;30279;-90
2022/05/09 14:13:46;;;;;;;;;;;;;;;;;;5076368;28;28403;-89
2022/05/09 14:16:13;;;;;;;;;;;;;;;;;;5077120;28;28621;-89
2022/05/09 14:18:41;;;;;;;;;;;;;;;;;;5077264;28;28552;-89
2022/05/09 14:21:06;;;;;;;;;;;;;;;;;;5058197;28;28808;-89
2022/05/09 14:23:31;;;;;;;;;;;;;;;;;;5076472;28;28468;-90
2022/05/09 14:31:24;;;;;;;;;;;;;;;;;;5066647;28;28325;-90
2022/05/09 14:33:49;;;;;;;;;;;;;;;;;;5075050;28;28499;-88
2022/05/09 14:36:14;;;;;;;;;;;;;;;;;;5076458;28;28386;-88
2022/05/09 14:38:40;;;;;;;;;;;;;;;;;;5075141;28;28289;-90
2022/05/09 14:41:05;;;;;;;;;;;;;;;;;;5076483;28;28383;-90
2022/05/09 14:43:31;;;;;;;;;;;;;;;;;;5076418;28;28553;-90
2022/05/09 14:45:56;;;;;;;;;;;;;;;;;;5076743;28;28320;-89
2022/05/09 14:48:21;;;;;;;;;;;;;;;;;;5076402;28;28407;-87
2022/05/09 14:50:46;;;;;;;;;;;;;;;;;;5076405;28;29176;-88
2022/05/09 14:53:12;;;;;;;;;;;;;;;;;;5076331;28;28400;-89
2022/05/09 14:58:20;;;;;;;;;;;;;;;;;;5076063;28;28348;-89
2022/05/09 15:00:46;;;;;;;;;;;;;;;;;;5076191;28;29381;-89
2022/05/09 15:03:11;;;;;;;;;;;;;;;;;;5076123;28;28439;-89
2022/05/09 15:05:36;;;;;;;;;;;;;;;;;;5076105;28;28432;-90
2022/05/09 15:08:01;;;;;;;;;;;;;;;;;;5076379;28;28304;-90
2022/05/09 15:10:26;;;;;;;;;;;;;;;;;;5076174;28;28502;-90
2022/05/09 15:12:51;;;;;;;;;;;;;;;;;;5074718;28;31363;-89
2022/05/09 15:15:16;;;;;;;;;;;;;;;;;;5074590;28;28336;-90
2022/05/09 15:17:42;;;;;;;;;;;;;;;;;;5076296;28;28226;-90
2022/05/09 15:20:08;;;;;;;;;;;;;;;;;;5075782;28;28553;-89
2022/05/09 15:22:34;;;;;;;;;;;;;;;;;;5075898;28;28474;-90
2022/05/09 15:24:59;;;;;;;;;;;;;;;;;;5076019;28;28453;-89
2022/05/09 15:27:24;;;;;;;;;;;;;;;;;;5076071;28;28501;-90
2022/05/09 15:29:49;;;;;;;;;;;;;;;;;;5074407;28;28561;-90
2022/05/09 15:32:14;;;;;;;;;;;;;;;;;;5074901;28;28416;-90
2022/05/09 15:34:39;;;;;;;;;;;;;;;;;;5075730;28;28492;-89
2022/05/09 15:37:04;;;;;;;;;;;;;;;;;;5076301;28;28340;-88
2022/05/09 15:39:29;;;;;;;;;;;;;;;;;;5075526;28;29481;-89
2022/05/09 15:41:54;;;;;;;;;;;;;;;;;;5074793;28;29353;-85
2022/05/09 15:44:19;;;;;;;;;;;;;;;;;;5075740;28;28461;-89
2022/05/09 15:46:45;;;;;;;;;;;;;;;;;;5074785;28;28486;-92
2022/05/09 15:49:10;;;;;;;;;;;;;;;;;;5075508;28;29608;-91
2022/05/09 15:51:37;;;;;;;;;;;;;;;;;;5074203;28;29158;-92
2022/05/09 15:54:02;;;;;;;;;;;;;;;;;;5074213;28;28419;-92
2022/05/09 15:56:28;;;;;;;;;;;;;;;;;;5074217;28;28308;-90
2022/05/09 15:58:53;;;;;;;;;;;;;;;;;;5075363;28;28422;-89
2022/05/09 16:01:18;;;;;;;;;;;;;;;;;;5075204;28;28379;-90
2022/05/09 16:03:43;;;;;;;;;;;;;;;;;;5072308;28;28472;-88
2022/05/09 16:11:36;;;;;;;;;;;;;;;;;;5075019;28;28452;-88
2022/05/09 16:14:01;;;;;;;;;;;;;;;;;;5074675;28;27819;-84
2022/05/09 16:16:26;;;;;;;;;;;;;;;;;;5075382;28;28421;-86
2022/05/09 16:18:51;;;;;;;;;;;;;;;;;;5073019;28;28594;-88
2022/05/09 16:21:16;;;;;;;;;;;;;;;;;;5075121;28;28577;-88
2022/05/09 16:23:41;;;;;;;;;;;;;;;;;;5074607;28;28458;-88
2022/05/09 16:26:07;;;;;;;;;;;;;;;;;;5074897;28;28537;-89
2022/05/09 16:28:32;;;;;;;;;;;;;;;;;;5075264;28;29319;-89
2022/05/09 16:30:57;;;;;;;;;;;;;;;;;;5073785;28;27879;-90
2022/05/09 16:33:22;;;;;;;;;;;;;;;;;;5073614;28;28450;-91
2022/05/09 16:35:47;;;;;;;;;;;;;;;;;;5073269;28;28628;-87
2022/05/09 16:38:12;;;;;;;;;;;;;;;;;;5074635;28;28502;-89
2022/05/09 16:40:37;;;;;;;;;;;;;;;;;;5075067;28;28435;-91
2022/05/09 16:43:03;;;;;;;;;;;;;;;;;;5075218;28;28292;-90
2022/05/09 16:45:28;;;;;;;;;;;;;;;;;;5075492;28;28521;-88
2022/05/09 16:47:53;;;;;;;;;;;;;;;;;;5078061;28;28348;-89
2022/05/09 16:50:18;;;;;;;;;;;;;;;;;;5078306;28;28344;-90
2022/05/09 16:52:43;;;;;;;;;;;;;;;;;;5078760;28;28373;-93
2022/05/09 16:55:08;;;;;;;;;;;;;;;;;;5067484;28;28423;-88
2022/05/09 16:57:33;;;;;;;;;;;;;;;;;;5076869;28;30019;-87